UTDL

Details ICAO UTDL (LBD)
Name KHUDZHAND
Region Tajikistan, Turkmenistan and Uzbekistan
Timezone Asia/Dushanbe (UTC+5.0)
Plans Departing 10
Arriving 9
Stats Elevation 1,450 ft / 442 m (AMSL)
Location 40.215396° 69.694708°
Runways 1
Magnetic Variation 4.988° E
Sunrise 2018-05-21 00:02:06 UTC / 2018-05-21 05:02:06 Local
Sunset 2018-05-21 14:36:21 UTC / 2018-05-21 19:36:21 Local
Advertisement - Login to hide

Runways

ID Width Length Bearing (true) Bearing (mag) Surface Threshold Offset Overrun Length
08 164 ft / 50 m 10,427 ft / 3,178 m 82.16° 77.17° Asphalt 975 ft / 297 m 210 ft / 64 m
26 164 ft / 50 m 10,427 ft / 3,178 m 262.18° 257.19° Asphalt 975 ft / 297 m 250 ft / 76 m

Map

Weather


0- 5 10 15 20 25 30 35+ Temperature / ° C

Clouds and Precipitation
Forecast for 2018-05-21 06:00 UTC. Updated 28 minutes ago

Ground ~20,000 ft ~40,000 ft Winds

METAR

UTDL 210330Z 08005MPS 9999 FEW086 22/12 Q1018 R08/CLRD70 NOSIG RMK QFE724/0965

TAF

Not found

Frequencies

Tower 120.30 MHz TWR
Approach 120.30 MHz KRUG
Approach 124.80 MHz APP
Warning: Do not use this data for real-world aviation or navigation. No guarantee of current accuracy is given.